Terminal Aerodrome Forecast
Issued by NWS

Home | Current Version | Previous Version | Graphics & Text | Print | Product List | Glossary On
Versions: 1 2 3 4 5 6 7 8 9 10 11 12 13
529
FTUS45 KGGW 231730
TAFSDY
TAF
KSDY 231730Z 2318/2418 35004KT P6SM BKN090
     FM232300 32006KT P6SM SCT110
     FM240700 VRB03KT P6SM FEW009
     FM241400 VRB03KT P6SM FEW050=

USA.gov is the U.S. government's official web portal to all federal, state and local government web resources and services.